Time;durP1;ratioP1;P1;durP2;ratioP2;P2;SDS_P1;SDS_P2;PMS_P1;PMS_P2;Temp;Humidity;BMP_temperature;BMP_pressure;BME280_temperature;BME280_humidity;BME280_pressure;Samples;Min_cycle;Max_cycle;Signal;HPM_P1;HPM_P2
2022/03/17 00:01:12;;;;;;;35.40;31.60;;;;;;;;;;4987483;28;20045;-63
2022/03/17 00:03:58;;;;;;;36.95;31.48;;;;;;;;;;5001040;28;20031;-64
2022/03/17 00:06:43;;;;;;;35.22;31.10;;;;;;;;;;4990971;28;20129;-61
2022/03/17 00:09:28;;;;;;;37.30;32.55;;;;;;;;;;4983479;28;20117;-62
2022/03/17 00:12:14;;;;;;;35.30;31.23;;;;;;;;;;4987188;28;20521;-64
2022/03/17 00:14:59;;;;;;;32.38;28.73;;;;;;;;;;4983205;28;20040;-63
2022/03/17 00:17:46;;;;;;;36.97;30.50;;;;;;;;;;4994041;28;20466;-65
2022/03/17 00:20:31;;;;;;;38.35;33.97;;;;;;;;;;4990486;28;20062;-65
2022/03/17 00:23:17;;;;;;;39.55;33.58;;;;;;;;;;5000266;28;20033;-64
2022/03/17 00:26:02;;;;;;;36.85;30.75;;;;;;;;;;4989096;28;20121;-62
2022/03/17 00:28:47;;;;;;;33.10;29.20;;;;;;;;;;4983449;28;20557;-63
2022/03/17 00:31:33;;;;;;;34.95;29.98;;;;;;;;;;4980934;28;20045;-66
2022/03/17 00:34:18;;;;;;;37.50;32.10;;;;;;;;;;4984534;28;20064;-61
2022/03/17 00:37:03;;;;;;;39.00;33.67;;;;;;;;;;4978751;28;20026;-62
2022/03/17 00:39:49;;;;;;;37.78;33.17;;;;;;;;;;5004272;28;20030;-63
2022/03/17 00:42:35;;;;;;;36.97;31.35;;;;;;;;;;4986766;28;20141;-62
2022/03/17 00:45:21;;;;;;;43.20;32.40;;;;;;;;;;5002092;28;20116;-65
2022/03/17 00:48:07;;;;;;;32.33;28.90;;;;;;;;;;4991096;28;20018;-73
2022/03/17 00:50:52;;;;;;;40.63;33.90;;;;;;;;;;4986718;28;20049;-64
2022/03/17 00:53:38;;;;;;;39.95;33.35;;;;;;;;;;5003732;28;20170;-66
2022/03/17 00:56:24;;;;;;;42.03;33.78;;;;;;;;;;4998771;28;20165;-62
2022/03/17 00:59:09;;;;;;;34.92;31.10;;;;;;;;;;4979226;28;20057;-65
2022/03/17 01:01:54;;;;;;;36.55;32.63;;;;;;;;;;5005489;28;20045;-64
2022/03/17 01:04:39;;;;;;;35.95;30.42;;;;;;;;;;4994106;28;20477;-67
2022/03/17 01:07:25;;;;;;;36.05;31.88;;;;;;;;;;5003827;28;20029;-62
2022/03/17 01:10:11;;;;;;;40.72;34.05;;;;;;;;;;4985545;28;20204;-64
2022/03/17 01:12:56;;;;;;;39.72;33.85;;;;;;;;;;4996049;28;20037;-65
2022/03/17 01:15:42;;;;;;;37.28;30.08;;;;;;;;;;4989620;28;20038;-62
2022/03/17 01:18:27;;;;;;;37.45;31.23;;;;;;;;;;4985172;28;20491;-62
2022/03/17 01:21:12;;;;;;;36.83;31.80;;;;;;;;;;5005798;28;20038;-63
2022/03/17 01:23:57;;;;;;;35.28;31.30;;;;;;;;;;4996932;28;20108;-64
2022/03/17 01:26:43;;;;;;;37.28;31.33;;;;;;;;;;4990211;28;20381;-63
2022/03/17 01:29:29;;;;;;;38.20;32.03;;;;;;;;;;4984252;28;20038;-62
2022/03/17 01:32:14;;;;;;;38.85;32.03;;;;;;;;;;4990906;28;20041;-62
2022/03/17 01:34:59;;;;;;;37.53;32.10;;;;;;;;;;4987225;28;20038;-63
2022/03/17 01:37:44;;;;;;;46.28;34.22;;;;;;;;;;5001450;28;20038;-62
2022/03/17 01:40:30;;;;;;;38.10;33.72;;;;;;;;;;4981818;28;20481;-62
2022/03/17 01:43:15;;;;;;;40.35;33.28;;;;;;;;;;4985352;28;20430;-70
2022/03/17 01:46:00;;;;;;;41.60;33.30;;;;;;;;;;4992939;28;20041;-62
2022/03/17 01:48:45;;;;;;;38.03;32.92;;;;;;;;;;5000407;28;20038;-64
2022/03/17 01:51:31;;;;;;;39.55;32.05;;;;;;;;;;4985927;28;20030;-63
2022/03/17 01:54:19;;;;;;;36.50;30.25;;;;;;;;;;4985585;28;20098;-64
2022/03/17 01:57:05;;;;;;;34.72;30.17;;;;;;;;;;4987108;28;20121;-64
2022/03/17 01:59:50;;;;;;;37.08;30.83;;;;;;;;;;4980656;28;20433;-66
2022/03/17 02:02:36;;;;;;;38.40;33.72;;;;;;;;;;4981587;28;20065;-63
2022/03/17 02:05:21;;;;;;;39.17;33.95;;;;;;;;;;5003065;28;20043;-64
2022/03/17 02:08:09;;;;;;;38.45;33.15;;;;;;;;;;4992162;28;20125;-64
2022/03/17 02:13:58;;;;;;;37.72;31.95;;;;;;;;;;4999476;28;20033;-65
2022/03/17 02:16:43;;;;;;;37.80;33.22;;;;;;;;;;4995505;28;20138;-64
2022/03/17 02:19:28;;;;;;;36.13;30.92;;;;;;;;;;4988232;28;20046;-71
2022/03/17 02:22:15;;;;;;;39.40;33.30;;;;;;;;;;4987253;28;20037;-63
2022/03/17 02:28:05;;;;;;;41.28;34.10;;;;;;;;;;4993671;28;20518;-63
2022/03/17 02:30:51;;;;;;;35.17;30.05;;;;;;;;;;4997152;28;20053;-64
2022/03/17 02:33:40;;;;;;;37.25;31.17;;;;;;;;;;4983195;28;20045;-64
2022/03/17 02:36:25;;;;;;;37.30;31.15;;;;;;;;;;4992470;28;20412;-64
2022/03/17 02:39:11;;;;;;;36.35;32.35;;;;;;;;;;4997266;28;20034;-72
2022/03/17 02:41:56;;;;;;;40.20;32.08;;;;;;;;;;4981132;28;20049;-71
2022/03/17 02:44:42;;;;;;;40.83;33.35;;;;;;;;;;4994132;28;20397;-72
2022/03/17 02:47:28;;;;;;;38.58;32.33;;;;;;;;;;4991533;28;20052;-71
2022/03/17 02:50:13;;;;;;;37.67;33.50;;;;;;;;;;4991807;28;20128;-71
2022/03/17 02:53:05;;;;;;;36.42;32.50;;;;;;;;;;4992989;28;20045;-72
2022/03/17 02:55:50;;;;;;;37.08;32.78;;;;;;;;;;4996792;28;20029;-64
2022/03/17 02:58:36;;;;;;;36.42;31.98;;;;;;;;;;4997800;28;20367;-63
2022/03/17 03:01:21;;;;;;;34.15;30.45;;;;;;;;;;4986177;28;20037;-62
2022/03/17 03:04:06;;;;;;;39.08;32.47;;;;;;;;;;4990172;28;20037;-63
2022/03/17 03:06:52;;;;;;;37.28;30.92;;;;;;;;;;5004601;28;20418;-62
2022/03/17 03:09:37;;;;;;;36.63;30.55;;;;;;;;;;4984767;28;20080;-62
2022/03/17 03:12:23;;;;;;;37.25;31.55;;;;;;;;;;4988057;28;20402;-62
2022/03/17 03:15:09;;;;;;;40.25;30.55;;;;;;;;;;4996279;28;20401;-63
2022/03/17 03:17:57;;;;;;;42.08;34.15;;;;;;;;;;4980909;28;20436;-64
2022/03/17 03:20:43;;;;;;;34.70;30.00;;;;;;;;;;4991296;28;20183;-64
2022/03/17 03:23:28;;;;;;;38.25;32.63;;;;;;;;;;4979009;28;20421;-63
2022/03/17 03:26:13;;;;;;;36.90;30.98;;;;;;;;;;4981551;28;20030;-63
2022/03/17 03:28:59;;;;;;;38.13;32.83;;;;;;;;;;4983816;28;20058;-64
2022/03/17 03:31:44;;;;;;;37.80;30.23;;;;;;;;;;4995231;28;20030;-65
2022/03/17 03:34:30;;;;;;;41.05;32.45;;;;;;;;;;4984068;28;20030;-67
2022/03/17 03:37:24;;;;;;;39.50;33.08;;;;;;;;;;5000079;28;20657;-64
2022/03/17 03:40:10;;;;;;;37.17;31.92;;;;;;;;;;4980697;28;20095;-63
2022/03/17 03:42:55;;;;;;;34.05;29.90;;;;;;;;;;4978960;28;20129;-63
2022/03/17 03:45:40;;;;;;;38.03;30.25;;;;;;;;;;4989833;28;20516;-64
2022/03/17 03:48:25;;;;;;;33.67;29.70;;;;;;;;;;4974458;28;20033;-64
2022/03/17 03:51:11;;;;;;;36.75;31.25;;;;;;;;;;4971842;28;20108;-64
2022/03/17 03:54:16;;;;;;;40.20;33.03;;;;;;;;;;4989709;28;20578;-72
2022/03/17 03:57:01;;;;;;;37.92;31.40;;;;;;;;;;4976168;28;20133;-73
2022/03/17 03:59:47;;;;;;;37.42;30.77;;;;;;;;;;4988898;28;20109;-73
2022/03/17 04:02:33;;;;;;;35.00;30.75;;;;;;;;;;5006451;28;20041;-72
2022/03/17 04:05:19;;;;;;;34.85;30.08;;;;;;;;;;4982903;28;20164;-71
2022/03/17 04:08:05;;;;;;;38.25;32.75;;;;;;;;;;4986213;28;20503;-72
2022/03/17 04:10:50;;;;;;;36.55;30.02;;;;;;;;;;4978562;28;20080;-62
2022/03/17 04:13:35;;;;;;;36.90;30.15;;;;;;;;;;4993651;28;20477;-63
2022/03/17 04:16:21;;;;;;;38.38;31.63;;;;;;;;;;4979845;28;20046;-65
2022/03/17 04:19:07;;;;;;;38.13;32.45;;;;;;;;;;4982604;28;20121;-64
2022/03/17 04:21:53;;;;;;;38.65;33.53;;;;;;;;;;4990784;28;20038;-66
2022/03/17 04:24:38;;;;;;;37.97;31.88;;;;;;;;;;5013730;28;20574;-63
2022/03/17 04:27:24;;;;;;;36.78;31.58;;;;;;;;;;4980285;28;20041;-65
2022/03/17 04:30:09;;;;;;;36.03;31.90;;;;;;;;;;4989621;28;20121;-64
2022/03/17 04:32:54;;;;;;;34.72;30.20;;;;;;;;;;4997794;28;20097;-63
2022/03/17 04:35:40;;;;;;;38.78;31.92;;;;;;;;;;4993247;28;20040;-62
2022/03/17 04:38:25;;;;;;;38.75;31.70;;;;;;;;;;4991181;28;20040;-63
2022/03/17 04:41:11;;;;;;;38.45;32.33;;;;;;;;;;4996173;28;20157;-65
2022/03/17 04:43:57;;;;;;;39.15;32.72;;;;;;;;;;5003554;28;20451;-66
2022/03/17 04:46:42;;;;;;;40.17;33.78;;;;;;;;;;5006619;28;20041;-63
2022/03/17 04:49:27;;;;;;;41.88;32.63;;;;;;;;;;4994627;28;20029;-64
2022/03/17 04:55:16;;;;;;;40.70;32.65;;;;;;;;;;4994414;28;20033;-65
2022/03/17 04:58:01;;;;;;;40.92;33.20;;;;;;;;;;4980602;28;20400;-66
2022/03/17 05:00:47;;;;;;;40.22;31.40;;;;;;;;;;5000263;28;20045;-67
2022/03/17 05:03:33;;;;;;;39.10;30.38;;;;;;;;;;5004983;28;20029;-62
2022/03/17 05:06:18;;;;;;;38.00;30.80;;;;;;;;;;5010602;28;20485;-70
2022/03/17 05:09:05;;;;;;;38.75;32.53;;;;;;;;;;5007550;28;20089;-71
2022/03/17 05:11:50;;;;;;;40.33;33.45;;;;;;;;;;4995392;28;20069;-70
2022/03/17 05:14:35;;;;;;;38.15;30.80;;;;;;;;;;4995230;28;20042;-71
2022/03/17 05:17:20;;;;;;;37.25;31.10;;;;;;;;;;4989227;28;20029;-71
2022/03/17 05:20:08;;;;;;;39.60;32.78;;;;;;;;;;4990721;28;20034;-71
2022/03/17 05:22:54;;;;;;;40.15;33.35;;;;;;;;;;4992456;28;20519;-63
2022/03/17 05:25:40;;;;;;;37.35;32.47;;;;;;;;;;4997803;28;20033;-72
2022/03/17 05:28:25;;;;;;;43.80;32.85;;;;;;;;;;4988245;28;20124;-72
2022/03/17 05:31:11;;;;;;;40.95;32.00;;;;;;;;;;4990982;28;20437;-75
2022/03/17 05:33:56;;;;;;;40.17;32.67;;;;;;;;;;4978837;28;20073;-73
2022/03/17 05:36:41;;;;;;;40.15;33.33;;;;;;;;;;5025175;28;20055;-73
2022/03/17 05:39:26;;;;;;;41.55;32.17;;;;;;;;;;4991496;28;20045;-70
2022/03/17 05:42:12;;;;;;;38.92;32.78;;;;;;;;;;4993994;28;20038;-71
2022/03/17 05:44:57;;;;;;;41.88;33.03;;;;;;;;;;4989398;28;20048;-71
2022/03/17 05:47:44;;;;;;;43.72;34.45;;;;;;;;;;4992679;28;20145;-72
2022/03/17 05:50:31;;;;;;;42.10;33.88;;;;;;;;;;4984833;28;20037;-71
2022/03/17 05:53:16;;;;;;;42.67;33.60;;;;;;;;;;4982654;28;20064;-70
2022/03/17 05:56:01;;;;;;;40.28;34.70;;;;;;;;;;4977178;28;20043;-70
2022/03/17 05:58:46;;;;;;;42.03;31.83;;;;;;;;;;4989766;28;20394;-71
2022/03/17 06:01:32;;;;;;;40.75;33.83;;;;;;;;;;4989987;28;20041;-63
2022/03/17 06:04:17;;;;;;;44.67;35.22;;;;;;;;;;4992007;28;20045;-62
2022/03/17 06:07:02;;;;;;;40.97;35.72;;;;;;;;;;4984744;28;20034;-63
2022/03/17 06:09:47;;;;;;;43.42;34.90;;;;;;;;;;4997135;28;20100;-66
2022/03/17 06:12:33;;;;;;;44.10;36.55;;;;;;;;;;4985170;28;20034;-65
2022/03/17 06:15:19;;;;;;;43.55;34.75;;;;;;;;;;4979700;28;20401;-63
2022/03/17 06:18:05;;;;;;;43.95;35.35;;;;;;;;;;4998192;28;20072;-62
2022/03/17 06:20:50;;;;;;;41.78;34.65;;;;;;;;;;4989524;28;20030;-66
2022/03/17 06:23:36;;;;;;;39.50;34.60;;;;;;;;;;4988773;28;20049;-66
2022/03/17 06:26:21;;;;;;;42.47;33.35;;;;;;;;;;4976778;28;20386;-64
2022/03/17 06:29:06;;;;;;;43.17;35.13;;;;;;;;;;5019826;28;20129;-66
2022/03/17 06:31:51;;;;;;;37.75;32.22;;;;;;;;;;4976433;28;20120;-66
2022/03/17 06:34:36;;;;;;;41.08;33.83;;;;;;;;;;4995994;28;20042;-70
2022/03/17 06:37:22;;;;;;;43.95;33.20;;;;;;;;;;4991476;28;20057;-65
2022/03/17 06:40:07;;;;;;;45.33;35.10;;;;;;;;;;4992426;28;20026;-63
2022/03/17 06:42:54;;;;;;;43.70;35.65;;;;;;;;;;4998752;28;20104;-62
2022/03/17 06:45:39;;;;;;;43.50;35.83;;;;;;;;;;4976000;28;20030;-61
2022/03/17 06:48:24;;;;;;;42.20;32.85;;;;;;;;;;4987283;28;20369;-63
2022/03/17 06:51:09;;;;;;;43.58;33.53;;;;;;;;;;4992874;28;20083;-64
2022/03/17 06:53:54;;;;;;;44.80;35.47;;;;;;;;;;4992924;28;20062;-62
2022/03/17 06:56:40;;;;;;;41.45;33.85;;;;;;;;;;4996514;28;20033;-64
2022/03/17 06:59:25;;;;;;;44.90;35.00;;;;;;;;;;4979980;28;20452;-72
2022/03/17 07:02:10;;;;;;;43.83;35.47;;;;;;;;;;4991833;28;20148;-73
2022/03/17 07:04:56;;;;;;;45.30;36.25;;;;;;;;;;4978343;28;20049;-72
2022/03/17 07:07:42;;;;;;;42.33;35.22;;;;;;;;;;4989464;28;20038;-73
2022/03/17 07:10:28;;;;;;;44.72;35.60;;;;;;;;;;4989808;28;20041;-72
2022/03/17 07:13:13;;;;;;;50.50;36.15;;;;;;;;;;4989336;28;20033;-66
2022/03/17 07:15:58;;;;;;;47.00;36.45;;;;;;;;;;4996809;28;20477;-61
2022/03/17 07:18:44;;;;;;;44.55;34.45;;;;;;;;;;4991794;28;20079;-61
2022/03/17 07:21:29;;;;;;;50.45;35.88;;;;;;;;;;4991019;28;20044;-63
2022/03/17 07:24:16;;;;;;;38.70;33.38;;;;;;;;;;4990789;28;20034;-64
2022/03/17 07:27:01;;;;;;;45.00;35.92;;;;;;;;;;4988518;28;20080;-62
2022/03/17 07:29:47;;;;;;;45.88;36.47;;;;;;;;;;4993569;28;20432;-62
2022/03/17 07:32:32;;;;;;;44.67;37.53;;;;;;;;;;4992578;28;20166;-69
2022/03/17 07:35:17;;;;;;;41.92;36.55;;;;;;;;;;4992061;28;20065;-68
2022/03/17 07:38:04;;;;;;;45.13;35.15;;;;;;;;;;4991675;28;20030;-70
2022/03/17 07:40:49;;;;;;;42.10;35.58;;;;;;;;;;4992373;28;20050;-69
2022/03/17 07:43:34;;;;;;;43.05;36.03;;;;;;;;;;4995245;28;20075;-70
2022/03/17 07:46:19;;;;;;;43.33;35.83;;;;;;;;;;5000080;28;20129;-70
2022/03/17 07:49:05;;;;;;;42.35;35.53;;;;;;;;;;4994413;28;20477;-62
2022/03/17 07:51:50;;;;;;;47.38;35.35;;;;;;;;;;4995216;28;20025;-65
2022/03/17 07:54:35;;;;;;;45.80;36.60;;;;;;;;;;5001452;28;20104;-62
2022/03/17 07:57:21;;;;;;;47.28;39.03;;;;;;;;;;4982836;28;20042;-62
2022/03/17 08:00:08;;;;;;;49.25;38.40;;;;;;;;;;4986623;28;20029;-62
2022/03/17 08:02:54;;;;;;;42.58;36.35;;;;;;;;;;4987425;28;20493;-62
2022/03/17 08:05:39;;;;;;;46.03;38.33;;;;;;;;;;4986770;28;20046;-63
2022/03/17 08:08:24;;;;;;;44.47;38.75;;;;;;;;;;4991940;28;20065;-62
2022/03/17 08:11:10;;;;;;;44.97;37.58;;;;;;;;;;4998563;28;20033;-64
2022/03/17 08:13:55;;;;;;;42.35;36.08;;;;;;;;;;5001765;28;20424;-64
2022/03/17 08:16:40;;;;;;;44.75;36.15;;;;;;;;;;4995806;28;20073;-62
2022/03/17 08:19:26;;;;;;;43.20;36.83;;;;;;;;;;4997726;28;20041;-63
2022/03/17 08:22:11;;;;;;;42.85;36.28;;;;;;;;;;4986664;28;20030;-61
2022/03/17 08:24:56;;;;;;;45.97;36.15;;;;;;;;;;5002863;28;20030;-65
2022/03/17 08:27:42;;;;;;;43.78;36.72;;;;;;;;;;4988886;28;20034;-68
2022/03/17 08:30:28;;;;;;;41.55;35.83;;;;;;;;;;4987398;28;20030;-63
2022/03/17 08:33:14;;;;;;;44.95;37.78;;;;;;;;;;4990441;28;20049;-61
2022/03/17 08:35:59;;;;;;;40.13;33.63;;;;;;;;;;5001851;28;20491;-64
2022/03/17 08:38:44;;;;;;;46.70;36.40;;;;;;;;;;4990796;28;20095;-63
2022/03/17 08:41:30;;;;;;;45.50;37.28;;;;;;;;;;4989682;28;20123;-62
2022/03/17 08:44:15;;;;;;;41.92;36.13;;;;;;;;;;4989215;28;20065;-66
2022/03/17 08:50:04;;;;;;;43.75;36.90;;;;;;;;;;4998260;28;20037;-62
2022/03/17 08:52:50;;;;;;;41.78;36.70;;;;;;;;;;4989950;28;20045;-64
2022/03/17 08:55:36;;;;;;;45.53;37.95;;;;;;;;;;4990307;28;20744;-63
2022/03/17 08:58:23;;;;;;;44.65;36.58;;;;;;;;;;4987587;28;20030;-61
2022/03/17 09:01:08;;;;;;;44.00;34.65;;;;;;;;;;4988959;28;20441;-64
2022/03/17 09:03:53;;;;;;;44.90;37.03;;;;;;;;;;4991491;28;20137;-77
2022/03/17 09:06:41;;;;;;;44.97;36.60;;;;;;;;;;4990622;28;20492;-73
2022/03/17 09:09:27;;;;;;;41.65;37.08;;;;;;;;;;4989731;28;20040;-73
2022/03/17 09:12:12;;;;;;;47.05;39.15;;;;;;;;;;4983602;28;20088;-77
2022/03/17 09:14:58;;;;;;;47.70;38.58;;;;;;;;;;4998424;28;20262;-70
2022/03/17 09:17:43;;;;;;;42.50;35.38;;;;;;;;;;4990176;28;20042;-73
2022/03/17 09:20:28;;;;;;;43.08;36.33;;;;;;;;;;4998373;28;20325;-72
2022/03/17 09:23:14;;;;;;;43.42;34.65;;;;;;;;;;4986620;28;20034;-64
2022/03/17 09:25:59;;;;;;;41.97;35.33;;;;;;;;;;5009971;28;20064;-66
2022/03/17 09:28:44;;;;;;;43.00;35.10;;;;;;;;;;5005097;28;20069;-66
2022/03/17 09:31:30;;;;;;;42.95;36.25;;;;;;;;;;4996016;28;20053;-65
2022/03/17 09:34:15;;;;;;;37.72;32.05;;;;;;;;;;5009833;28;20041;-65
2022/03/17 09:37:01;;;;;;;39.38;34.08;;;;;;;;;;4990151;28;20038;-66
2022/03/17 09:39:46;;;;;;;42.75;35.08;;;;;;;;;;5010010;28;20486;-73
2022/03/17 09:42:32;;;;;;;37.08;31.83;;;;;;;;;;4976346;28;20646;-61
2022/03/17 09:45:17;;;;;;;37.40;32.58;;;;;;;;;;4995822;28;20594;-62
2022/03/17 09:48:02;;;;;;;37.03;32.13;;;;;;;;;;4995341;28;20034;-63
2022/03/17 09:50:54;;;;;;;37.45;32.13;;;;;;;;;;4996912;28;20037;-62
2022/03/17 09:53:39;;;;;;;38.75;30.83;;;;;;;;;;5001450;28;20524;-62
2022/03/17 09:56:24;;;;;;;39.17;33.63;;;;;;;;;;5001726;28;20029;-61
2022/03/17 09:59:09;;;;;;;37.22;31.95;;;;;;;;;;4994714;28;20054;-65
2022/03/17 10:01:57;;;;;;;39.63;32.97;;;;;;;;;;4997098;28;20026;-62
2022/03/17 10:04:46;;;;;;;40.20;34.47;;;;;;;;;;4994370;28;20061;-62
2022/03/17 10:07:34;;;;;;;36.17;30.57;;;;;;;;;;4994373;28;20412;-63
2022/03/17 10:10:22;;;;;;;37.13;31.80;;;;;;;;;;4991627;28;20034;-65
2022/03/17 10:13:11;;;;;;;40.58;33.53;;;;;;;;;;4997684;28;20429;-64
2022/03/17 10:16:06;;;;;;;38.70;33.70;;;;;;;;;;4987507;28;20041;-63
2022/03/17 10:18:58;;;;;;;39.28;31.35;;;;;;;;;;5007748;28;20424;-63
2022/03/17 10:21:44;;;;;;;37.85;30.98;;;;;;;;;;4990770;28;20083;-75
2022/03/17 10:24:33;;;;;;;41.45;32.80;;;;;;;;;;4991227;28;20520;-74
2022/03/17 10:27:38;;;;;;;41.50;33.00;;;;;;;;;;5000262;28;20026;-75
2022/03/17 10:30:24;;;;;;;41.92;33.65;;;;;;;;;;4995853;28;20067;-77
2022/03/17 10:33:14;;;;;;;40.13;30.13;;;;;;;;;;5010368;28;20038;-75
2022/03/17 10:36:12;;;;;;;39.22;31.42;;;;;;;;;;4993865;28;20121;-66
2022/03/17 10:38:57;;;;;;;39.25;32.15;;;;;;;;;;4996594;28;20039;-64
2022/03/17 10:41:44;;;;;;;35.83;30.55;;;;;;;;;;4993382;28;20037;-63
2022/03/17 10:44:32;;;;;;;44.25;33.78;;;;;;;;;;4995370;28;20087;-65
2022/03/17 10:47:23;;;;;;;38.22;31.15;;;;;;;;;;4993841;28;20044;-63
2022/03/17 10:50:09;;;;;;;41.40;32.10;;;;;;;;;;4989542;28;20042;-62
2022/03/17 10:52:56;;;;;;;40.78;33.63;;;;;;;;;;4990972;28;20045;-65
2022/03/17 10:55:41;;;;;;;41.55;31.60;;;;;;;;;;4994916;28;20112;-72
2022/03/17 10:58:26;;;;;;;39.47;31.73;;;;;;;;;;4987196;28;20029;-72
2022/03/17 11:01:11;;;;;;;35.15;29.15;;;;;;;;;;5028558;28;20037;-72
2022/03/17 11:03:57;;;;;;;42.40;32.38;;;;;;;;;;5012414;28;20104;-74
2022/03/17 11:06:42;;;;;;;37.05;29.30;;;;;;;;;;5009058;28;20026;-72
2022/03/17 11:09:27;;;;;;;33.90;28.02;;;;;;;;;;5018057;28;20743;-72
2022/03/17 11:12:17;;;;;;;36.15;27.92;;;;;;;;;;4974920;28;20057;-65
2022/03/17 11:15:02;;;;;;;;;;;;;;;;;;5003714;28;20485;-67
2022/03/17 11:17:48;;;;;;;43.85;28.95;;;;;;;;;;4987047;28;19939;-70
2022/03/17 11:20:34;;;;;;;36.10;26.60;;;;;;;;;;4986354;28;20036;-66
2022/03/17 11:23:25;;;;;;;38.00;27.55;;;;;;;;;;4973600;28;20042;-67
2022/03/17 11:26:20;;;;;;;38.85;28.48;;;;;;;;;;4975573;28;20062;-67
2022/03/17 11:29:13;;;;;;;37.28;27.58;;;;;;;;;;4980967;28;20091;-70
2022/03/17 11:32:04;;;;;;;37.28;28.67;;;;;;;;;;4988094;28;20088;-64
2022/03/17 11:34:50;;;;;;;37.95;27.80;;;;;;;;;;4979933;28;20029;-76
2022/03/17 11:37:35;;;;;;;41.35;30.10;;;;;;;;;;4978010;28;20033;-72
2022/03/17 11:40:20;;;;;;;38.90;31.02;;;;;;;;;;4982825;28;20033;-75
2022/03/17 11:43:07;;;;;;;42.33;30.33;;;;;;;;;;4973925;28;20096;-74
2022/03/17 11:46:08;;;;;;;40.20;31.10;;;;;;;;;;4985576;28;20125;-74
2022/03/17 11:48:56;;;;;;;47.45;29.42;;;;;;;;;;4981385;28;20046;-71
2022/03/17 11:51:51;;;;;;;45.40;29.05;;;;;;;;;;4977529;28;20038;-64
2022/03/17 11:54:36;;;;;;;38.30;30.20;;;;;;;;;;4985070;28;20096;-66
2022/03/17 11:57:21;;;;;;;41.08;30.98;;;;;;;;;;4982857;28;20037;-66
2022/03/17 12:00:07;;;;;;;45.83;33.72;;;;;;;;;;4992288;28;20365;-65
2022/03/17 12:03:03;;;;;;;40.78;31.95;;;;;;;;;;4988016;28;20267;-65
2022/03/17 12:06:03;;;;;;;44.47;32.33;;;;;;;;;;4995294;28;20749;-66
2022/03/17 12:08:51;;;;;;;42.20;32.42;;;;;;;;;;4988602;28;20049;-66
2022/03/17 12:11:47;;;;;;;46.58;35.55;;;;;;;;;;4987191;28;20132;-65
2022/03/17 12:14:46;;;;;;;50.20;38.15;;;;;;;;;;4981902;28;20025;-64
2022/03/17 12:17:32;;;;;;;53.33;37.75;;;;;;;;;;5001773;28;20046;-65
2022/03/17 12:20:22;;;;;;;46.63;36.85;;;;;;;;;;4985094;28;20038;-64
2022/03/17 12:23:27;;;;;;;51.05;38.38;;;;;;;;;;5007588;28;20033;-64
2022/03/17 12:26:12;;;;;;;52.45;37.22;;;;;;;;;;4989672;28;20477;-64
2022/03/17 12:28:58;;;;;;;48.47;37.95;;;;;;;;;;4990959;28;20057;-65
2022/03/17 12:31:43;;;;;;;46.60;37.65;;;;;;;;;;4990088;28;20489;-63
2022/03/17 12:34:28;;;;;;;48.10;35.83;;;;;;;;;;5008509;28;20405;-64
2022/03/17 12:37:14;;;;;;;49.00;35.45;;;;;;;;;;4990094;28;20053;-63
2022/03/17 12:40:01;;;;;;;46.08;35.72;;;;;;;;;;4983648;28;20117;-65
2022/03/17 12:42:48;;;;;;;42.33;33.92;;;;;;;;;;5001545;28;20089;-64
2022/03/17 12:45:36;;;;;;;48.97;35.95;;;;;;;;;;4990648;28;20036;-71
2022/03/17 12:48:22;;;;;;;45.83;35.13;;;;;;;;;;4988709;28;20512;-76
2022/03/17 12:51:11;;;;;;;44.20;35.88;;;;;;;;;;4990203;28;20121;-75
2022/03/17 12:53:59;;;;;;;46.25;35.15;;;;;;;;;;4988050;28;20064;-77
2022/03/17 12:56:48;;;;;;;46.28;34.95;;;;;;;;;;5002179;28;20473;-75
2022/03/17 12:59:34;;;;;;;45.95;37.55;;;;;;;;;;4986826;28;20034;-67
2022/03/17 13:02:19;;;;;;;46.58;36.63;;;;;;;;;;4992780;28;20315;-59
2022/03/17 13:06:54;;;;;;;44.83;35.70;;;;;;;;;;4994704;28;20092;-61
2022/03/17 13:08:11;;;;;;;45.42;36.05;;;;;;;;;;5004777;28;20096;-62
2022/03/17 13:17:05;;;;;;;50.42;36.55;;;;;;;;;;4991456;28;20026;-64
2022/03/17 13:19:51;;;;;;;50.35;38.58;;;;;;;;;;4988262;28;20789;-67
2022/03/17 13:22:40;;;;;;;47.55;36.58;;;;;;;;;;4986418;28;20050;-66
2022/03/17 13:25:26;;;;;;;45.75;38.00;;;;;;;;;;4993414;28;20026;-63
2022/03/17 13:28:14;;;;;;;47.40;37.30;;;;;;;;;;4989774;28;20533;-62
2022/03/17 13:31:00;;;;;;;48.47;38.95;;;;;;;;;;4985599;28;20046;-62
2022/03/17 13:33:51;;;;;;;45.97;37.88;;;;;;;;;;4989984;28;20034;-60
2022/03/17 13:36:56;;;;;;;46.28;36.25;;;;;;;;;;4982567;28;20478;-63
2022/03/17 13:39:41;;;;;;;48.53;40.13;;;;;;;;;;5019580;28;20079;-64
2022/03/17 13:42:27;;;;;;;48.53;37.15;;;;;;;;;;4991590;28;20022;-66
2022/03/17 13:45:12;;;;;;;42.28;34.47;;;;;;;;;;4992717;28;20025;-64
2022/03/17 13:48:16;;;;;;;41.67;34.10;;;;;;;;;;4993185;28;20148;-65
2022/03/17 13:51:02;;;;;;;43.40;35.63;;;;;;;;;;5000418;28;20042;-65
2022/03/17 13:53:47;;;;;;;42.53;34.80;;;;;;;;;;4984836;28;20037;-66
2022/03/17 13:56:34;;;;;;;48.05;34.22;;;;;;;;;;4985331;28;20501;-68
2022/03/17 13:59:22;;;;;;;44.80;36.53;;;;;;;;;;4985553;28;20037;-63
2022/03/17 14:02:11;;;;;;;43.13;34.20;;;;;;;;;;4992986;28;20022;-71
2022/03/17 14:04:57;;;;;;;42.75;32.85;;;;;;;;;;4987990;28;20068;-73
2022/03/17 14:07:42;;;;;;;46.75;34.08;;;;;;;;;;4992648;28;20045;-71
2022/03/17 14:10:27;;;;;;;44.58;35.42;;;;;;;;;;4999483;28;20033;-70
2022/03/17 14:13:12;;;;;;;45.40;35.90;;;;;;;;;;5009206;28;20034;-69
2022/03/17 14:15:58;;;;;;;46.17;35.45;;;;;;;;;;5005335;28;20080;-63
2022/03/17 14:18:44;;;;;;;46.05;35.63;;;;;;;;;;4992486;28;20142;-61
2022/03/17 14:21:30;;;;;;;43.78;35.88;;;;;;;;;;4985315;28;20065;-64
2022/03/17 14:24:15;;;;;;;44.85;35.50;;;;;;;;;;4983206;28;20033;-65
2022/03/17 14:27:00;;;;;;;43.08;34.25;;;;;;;;;;4991027;28;20537;-65
2022/03/17 14:29:46;;;;;;;42.13;32.95;;;;;;;;;;4978891;28;20049;-65
2022/03/17 14:32:32;;;;;;;46.42;34.28;;;;;;;;;;4989993;28;20036;-64
2022/03/17 14:35:17;;;;;;;41.88;33.97;;;;;;;;;;4981104;28;20030;-76
2022/03/17 14:38:03;;;;;;;45.28;34.17;;;;;;;;;;4991475;28;20137;-68
2022/03/17 14:40:48;;;;;;;39.88;33.00;;;;;;;;;;5004169;28;20038;-65
2022/03/17 14:43:34;;;;;;;46.38;35.25;;;;;;;;;;5002877;28;20224;-64
2022/03/17 14:46:23;;;;;;;44.00;33.97;;;;;;;;;;4993686;28;20029;-65
2022/03/17 14:49:09;;;;;;;46.35;33.72;;;;;;;;;;4993816;28;20025;-64
2022/03/17 14:51:54;;;;;;;39.80;32.13;;;;;;;;;;4988555;28;20066;-66
2022/03/17 14:54:39;;;;;;;40.35;33.95;;;;;;;;;;5001824;28;20489;-69
2022/03/17 14:57:25;;;;;;;44.15;34.30;;;;;;;;;;4982828;28;20044;-71
2022/03/17 15:00:10;;;;;;;43.35;34.42;;;;;;;;;;4992451;28;20030;-72
2022/03/17 15:02:56;;;;;;;45.55;32.28;;;;;;;;;;4996406;28;20053;-73
2022/03/17 15:05:42;;;;;;;41.60;31.63;;;;;;;;;;4990496;28;20132;-75
2022/03/17 15:08:27;;;;;;;49.95;35.50;;;;;;;;;;4985308;28;20053;-72
2022/03/17 15:11:14;;;;;;;41.85;33.70;;;;;;;;;;4989627;28;20083;-63
2022/03/17 15:13:59;;;;;;;47.53;32.30;;;;;;;;;;4996367;28;20093;-65
2022/03/17 15:16:44;;;;;;;40.42;33.70;;;;;;;;;;4997701;28;20038;-67
2022/03/17 15:19:29;;;;;;;41.30;33.47;;;;;;;;;;4991873;28;20030;-66
2022/03/17 15:22:15;;;;;;;41.53;34.88;;;;;;;;;;4997661;28;20030;-64
2022/03/17 15:25:01;;;;;;;41.03;32.92;;;;;;;;;;4991022;28;20033;-64
2022/03/17 15:30:54;;;;;;;40.67;33.95;;;;;;;;;;4987391;28;20504;-65
2022/03/17 15:33:43;;;;;;;40.88;33.17;;;;;;;;;;5009729;28;20042;-65
2022/03/17 15:36:28;;;;;;;45.45;33.63;;;;;;;;;;4985055;28;20106;-62
2022/03/17 15:39:14;;;;;;;40.13;32.90;;;;;;;;;;4992914;28;20038;-63
2022/03/17 15:42:01;;;;;;;41.72;33.53;;;;;;;;;;4987101;28;20120;-61
2022/03/17 15:44:46;;;;;;;41.38;33.78;;;;;;;;;;4988362;28;20038;-65
2022/03/17 15:47:31;;;;;;;40.13;34.05;;;;;;;;;;4994986;28;20484;-63
2022/03/17 15:50:18;;;;;;;41.72;34.25;;;;;;;;;;5016759;28;20049;-76
2022/03/17 15:53:03;;;;;;;42.17;35.40;;;;;;;;;;4993106;28;20034;-62
2022/03/17 15:55:48;;;;;;;43.55;34.40;;;;;;;;;;4985750;28;20640;-62
2022/03/17 15:58:33;;;;;;;42.03;33.95;;;;;;;;;;4987965;28;20533;-63
2022/03/17 16:01:20;;;;;;;43.88;34.70;;;;;;;;;;4991358;28;20033;-63
2022/03/17 16:04:09;;;;;;;46.10;35.90;;;;;;;;;;4978448;28;20481;-64
2022/03/17 16:06:56;;;;;;;43.38;37.38;;;;;;;;;;4993012;28;20426;-66
2022/03/17 16:15:49;;;;;;;44.65;37.33;;;;;;;;;;4991759;28;20045;-71
2022/03/17 16:18:34;;;;;;;45.60;34.83;;;;;;;;;;5000455;28;20186;-69
2022/03/17 16:21:22;;;;;;;43.45;36.03;;;;;;;;;;5000390;28;20032;-69
2022/03/17 16:24:09;;;;;;;44.63;34.40;;;;;;;;;;4981923;28;20076;-69
2022/03/17 16:26:54;;;;;;;43.85;34.00;;;;;;;;;;4986421;28;20041;-67
2022/03/17 16:29:39;;;;;;;46.80;35.65;;;;;;;;;;5000543;28;20072;-67
2022/03/17 16:32:25;;;;;;;43.85;36.45;;;;;;;;;;4984466;28;20026;-64
2022/03/17 16:35:10;;;;;;;41.72;35.60;;;;;;;;;;4986080;28;20026;-65
2022/03/17 16:37:55;;;;;;;46.95;37.60;;;;;;;;;;4998438;28;20044;-65